createdAt,value
2018-01-03T00:20:30.497Z,0
2018-01-03T00:24:10.727Z,0
2018-01-03T00:38:37.461Z,0
2018-01-03T00:49:00.410Z,0
2018-01-03T01:20:44.561Z,0
2018-01-03T01:43:37.504Z,0
2018-01-03T01:44:38.276Z,0
2018-01-03T01:45:39.080Z,0
2018-01-03T01:46:39.797Z,0
2018-01-03T01:47:40.514Z,0
2018-01-03T01:48:41.245Z,0
2018-01-03T01:49:41.959Z,0
2018-01-03T01:50:42.667Z,0
2018-01-03T01:51:43.397Z,0
2018-01-03T01:52:44.114Z,0
2018-01-03T01:53:44.885Z,0
2018-01-03T01:54:45.610Z,0
2018-01-03T01:55:46.414Z,0
2018-01-03T01:56:47.132Z,0
2018-01-03T01:57:47.854Z,0
2018-01-03T01:58:48.630Z,0
2018-01-03T01:59:49.352Z,0
2018-01-03T02:00:50.068Z,0
2018-01-03T02:01:50.794Z,0
2018-01-03T02:02:51.599Z,0
2018-01-03T02:03:52.373Z,0
2018-01-03T02:04:53.103Z,0
2018-01-03T02:05:53.903Z,0
2018-01-03T02:06:54.635Z,0
2018-01-03T02:07:55.430Z,0
2018-01-03T02:08:56.158Z,0
2018-01-03T02:09:56.981Z,0
2018-01-03T02:10:57.704Z,0
2018-01-03T02:11:58.498Z,0
2018-01-03T02:12:59.272Z,0
2018-01-03T02:14:00.027Z,0
2018-01-03T02:15:00.767Z,0
2018-01-03T02:16:01.536Z,0
2018-01-03T02:17:02.246Z,0
2018-01-03T02:18:03.503Z,0
2018-01-03T02:19:04.310Z,0
2018-01-03T02:20:05.134Z,0
2018-01-03T02:21:05.864Z,0
2018-01-03T02:22:06.674Z,0
2018-01-03T02:23:07.411Z,0
2018-01-03T02:24:08.144Z,0
2018-01-03T02:25:08.932Z,0
2018-01-03T02:26:09.731Z,0
2018-01-03T02:27:16.724Z,0
2018-01-03T02:28:17.459Z,0
2018-01-03T02:29:18.177Z,0
2018-01-03T02:30:18.961Z,0
2018-01-03T02:31:19.762Z,0
2018-01-03T02:32:20.491Z,0
2018-01-03T02:33:21.208Z,0
2018-01-03T02:34:21.946Z,0
2018-01-03T02:35:22.725Z,0
2018-01-03T02:36:23.463Z,0
2018-01-03T02:37:24.181Z,0
2018-01-03T02:38:24.899Z,0
2018-01-03T02:39:25.633Z,0
2018-01-03T02:40:26.362Z,0
2018-01-03T02:41:27.117Z,0
2018-01-03T02:42:28.934Z,0
2018-01-03T02:43:29.569Z,0
2018-01-03T02:44:30.350Z,0
2018-01-03T02:45:31.075Z,0
2018-01-03T02:46:31.810Z,0
2018-01-03T02:47:32.527Z,0
2018-01-03T02:48:33.272Z,0
2018-01-03T02:49:34.068Z,0
2018-01-03T02:50:34.851Z,0
2018-01-03T02:51:35.587Z,0
2018-01-03T02:52:36.308Z,0
2018-01-03T02:53:37.036Z,0
2018-01-03T02:54:37.826Z,0
2018-01-03T02:55:38.561Z,0
2018-01-03T02:56:39.289Z,0
2018-01-03T02:57:40.004Z,0
2018-01-03T02:58:40.794Z,0
2018-01-03T02:59:41.529Z,0
2018-01-03T03:00:42.332Z,0
2018-01-03T03:01:43.146Z,0
2018-01-03T03:02:43.872Z,0
2018-01-03T03:03:44.610Z,0
2018-01-03T03:04:45.329Z,0
2018-01-03T03:05:46.049Z,0
2018-01-03T03:06:46.822Z,0
2018-01-03T03:07:47.569Z,0
2018-01-03T03:08:48.364Z,0
2018-01-03T03:09:49.135Z,0
2018-01-03T03:10:49.919Z,0
2018-01-03T03:11:50.701Z,0
2018-01-03T03:12:51.481Z,0
2018-01-03T03:13:52.232Z,0
2018-01-03T03:14:53.011Z,0
2018-01-03T03:15:53.750Z,0
2018-01-03T03:16:54.557Z,0
2018-01-03T03:17:55.345Z,0
2018-01-03T03:18:56.063Z,0
2018-01-03T03:19:56.791Z,0
2018-01-03T03:20:57.579Z,0
2018-01-03T03:21:58.351Z,0
2018-01-03T03:22:59.078Z,0
2018-01-03T03:23:59.846Z,0
2018-01-03T03:25:00.576Z,0
2018-01-03T03:26:01.306Z,0
2018-01-03T03:27:02.109Z,0
2018-01-03T03:28:02.833Z,0
2018-01-03T03:29:03.630Z,0
2018-01-03T03:30:04.361Z,0
2018-01-03T03:31:05.083Z,0
2018-01-03T03:32:05.901Z,0
2018-01-03T03:33:06.710Z,0
2018-01-03T03:34:07.520Z,0
2018-01-03T03:35:08.251Z,0
2018-01-03T03:36:08.969Z,0
2018-01-03T03:37:09.744Z,0
2018-01-03T03:38:10.481Z,0
2018-01-03T03:39:11.267Z,0
2018-01-03T03:40:11.990Z,0
2018-01-03T03:41:12.716Z,0
2018-01-03T03:42:13.450Z,0
2018-01-03T03:43:14.248Z,0
2018-01-03T03:44:14.978Z,0
2018-01-03T03:45:15.760Z,0
2018-01-03T03:46:16.483Z,0
2018-01-03T03:47:17.263Z,0
2018-01-03T03:48:17.980Z,0
2018-01-03T03:49:18.701Z,0
2018-01-03T03:50:19.495Z,0
2018-01-03T03:51:20.227Z,0
2018-01-03T03:52:20.948Z,0
2018-01-03T03:53:21.808Z,0
2018-01-03T03:54:22.524Z,0
2018-01-03T03:55:23.249Z,0
2018-01-03T03:56:23.981Z,0
2018-01-03T03:57:24.701Z,0
2018-01-03T03:58:25.500Z,0
2018-01-03T03:59:26.223Z,0
2018-01-03T04:00:26.950Z,0
2018-01-03T04:01:27.662Z,0
2018-01-03T04:02:28.381Z,0
2018-01-03T04:03:29.149Z,0
2018-01-03T04:04:29.871Z,0
2018-01-03T04:05:30.669Z,0
2018-01-03T04:06:31.399Z,0
2018-01-03T04:07:32.130Z,0
2018-01-03T04:08:32.987Z,0
2018-01-03T04:09:33.794Z,0
2018-01-03T04:10:34.582Z,0
2018-01-03T04:11:35.322Z,0
2018-01-03T04:12:36.100Z,0
2018-01-03T04:13:36.870Z,0
2018-01-03T04:14:37.590Z,0
2018-01-03T04:15:38.309Z,0
2018-01-03T04:16:39.040Z,0
2018-01-03T04:17:39.774Z,0
2018-01-03T04:18:40.579Z,0
2018-01-03T04:19:41.299Z,0
2018-01-03T04:20:42.030Z,0
2018-01-03T04:21:42.739Z,0
2018-01-03T04:22:43.459Z,0
2018-01-03T04:23:44.187Z,0
2018-01-03T04:24:44.980Z,0
2018-01-03T04:25:45.752Z,0
2018-01-03T04:26:46.481Z,0
2018-01-03T04:27:47.219Z,0
2018-01-03T04:28:47.966Z,0
2018-01-03T04:29:48.692Z,0
2018-01-03T04:30:49.442Z,0
2018-01-03T04:31:50.210Z,0
2018-01-03T04:32:50.936Z,0
2018-01-03T04:33:51.680Z,0
2018-01-03T04:34:52.460Z,0
2018-01-03T04:35:53.181Z,0
2018-01-03T04:36:54.024Z,0
2018-01-03T04:37:54.757Z,0
2018-01-03T04:38:55.538Z,0
2018-01-03T04:39:56.311Z,0
2018-01-03T04:40:57.035Z,0
2018-01-03T04:41:57.808Z,0
2018-01-03T04:42:58.540Z,0
2018-01-03T04:43:59.341Z,0
2018-01-03T04:45:00.141Z,0
2018-01-03T04:46:00.859Z,0
2018-01-03T04:47:01.639Z,0
2018-01-03T04:48:02.363Z,0
2018-01-03T04:49:03.081Z,0
2018-01-03T04:50:03.810Z,0
2018-01-03T04:51:04.530Z,0
2018-01-03T04:52:05.299Z,0
2018-01-03T04:53:06.035Z,0
2018-01-03T04:54:06.819Z,0
2018-01-03T04:55:07.550Z,0
2018-01-03T04:56:08.279Z,0
2018-01-03T04:57:09.065Z,0
2018-01-03T04:58:09.861Z,0
2018-01-03T04:59:10.579Z,0
2018-01-03T05:00:11.300Z,0
2018-01-03T05:01:12.019Z,0
2018-01-03T05:02:12.739Z,0
2018-01-03T05:03:13.531Z,0
2018-01-03T05:04:14.268Z,0
2018-01-03T05:05:15.026Z,0
2018-01-03T05:06:15.752Z,0
2018-01-03T05:07:16.531Z,0
2018-01-03T05:08:17.312Z,0
2018-01-03T05:09:18.119Z,0
2018-01-03T05:10:18.839Z,0
2018-01-03T05:11:19.568Z,0
2018-01-03T05:12:20.289Z,0
2018-01-03T05:13:21.019Z,0
2018-01-03T05:14:21.745Z,0
2018-01-03T05:15:22.484Z,0
2018-01-03T05:16:23.219Z,0
2018-01-03T05:17:23.957Z,0
2018-01-03T05:18:24.685Z,0
2018-01-03T05:19:25.396Z,0
2018-01-03T05:20:26.122Z,0
2018-01-03T05:21:26.919Z,0
2018-01-03T05:22:27.662Z,0
2018-01-03T05:23:28.441Z,0
2018-01-03T05:24:29.164Z,0
2018-01-03T05:25:29.954Z,0
2018-01-03T05:26:30.725Z,0
2018-01-03T05:27:31.504Z,0
2018-01-03T05:28:32.299Z,0
2018-01-03T05:29:33.020Z,0
2018-01-03T05:30:33.742Z,0
2018-01-03T05:31:34.533Z,0
2018-01-03T05:32:35.299Z,0
2018-01-03T05:33:36.019Z,0
2018-01-03T05:34:36.740Z,0
2018-01-03T05:35:37.545Z,0
2018-01-03T05:36:38.281Z,0
2018-01-03T05:37:39.052Z,0
2018-01-03T05:38:39.778Z,0
2018-01-03T05:39:40.503Z,0
2018-01-03T05:40:41.278Z,0
2018-01-03T05:41:42.039Z,0
2018-01-03T05:42:42.751Z,0
2018-01-03T05:43:43.473Z,0
2018-01-03T05:44:44.202Z,0
2018-01-03T05:45:44.983Z,0
2018-01-03T05:46:45.700Z,0
2018-01-03T05:47:46.500Z,0
2018-01-03T05:48:47.220Z,0
2018-01-03T05:49:48.021Z,0
2018-01-03T05:50:48.748Z,0
2018-01-03T05:51:49.479Z,0
2018-01-03T05:52:50.210Z,0
2018-01-03T05:53:50.938Z,0
2018-01-03T05:54:51.663Z,0
2018-01-03T05:55:52.389Z,0
2018-01-03T05:56:53.119Z,0
2018-01-03T05:57:53.923Z,0
2018-01-03T05:58:54.655Z,0
2018-01-03T05:59:55.440Z,0
2018-01-03T06:00:56.161Z,0
2018-01-03T06:01:56.881Z,0
2018-01-03T06:02:57.694Z,0
2018-01-03T06:03:58.478Z,0
2018-01-03T06:04:59.282Z,0
2018-01-03T06:06:00.012Z,0
2018-01-03T06:07:00.779Z,0
2018-01-03T06:08:01.490Z,0
2018-01-03T06:09:02.212Z,0
2018-01-03T06:10:02.995Z,0
2018-01-03T06:11:03.775Z,0
2018-01-03T06:12:04.489Z,0
2018-01-03T06:13:05.291Z,0
2018-01-03T06:14:06.149Z,0
2018-01-03T06:15:06.970Z,0
2018-01-03T06:16:07.769Z,0
2018-01-03T06:17:08.498Z,0
2018-01-03T06:18:09.227Z,0
2018-01-03T06:19:10.002Z,0
2018-01-03T06:20:10.805Z,0
2018-01-03T06:21:11.536Z,0
2018-01-03T06:22:12.256Z,0
2018-01-03T06:23:13.009Z,0
2018-01-03T06:24:13.789Z,0
2018-01-03T06:25:14.510Z,0
2018-01-03T06:26:15.239Z,0
2018-01-03T06:27:15.960Z,0
2018-01-03T06:28:16.690Z,0
2018-01-03T06:29:17.469Z,0
2018-01-03T06:30:18.204Z,0
2018-01-03T06:31:18.934Z,0
2018-01-03T06:32:19.735Z,0
2018-01-03T06:33:20.461Z,0
2018-01-03T06:34:21.296Z,0
2018-01-03T06:35:22.011Z,0
2018-01-03T06:36:22.729Z,0
2018-01-03T06:37:23.461Z,0
2018-01-03T06:38:24.234Z,0
2018-01-03T06:39:25.016Z,0
2018-01-03T06:40:25.799Z,0
2018-01-03T06:41:26.531Z,0
2018-01-03T06:42:27.329Z,0
2018-01-03T06:43:28.055Z,0
2018-01-03T06:44:28.831Z,0
2018-01-03T06:45:29.639Z,0
2018-01-03T06:46:30.362Z,0
2018-01-03T06:47:31.089Z,0
2018-01-03T06:48:31.849Z,0
2018-01-03T06:49:32.641Z,0
2018-01-03T06:50:33.420Z,0
2018-01-03T06:51:34.149Z,0
2018-01-03T06:52:34.881Z,0
2018-01-03T06:53:35.665Z,0
2018-01-03T06:54:36.393Z,0
2018-01-03T06:55:37.117Z,0
2018-01-03T06:56:37.914Z,0
2018-01-03T06:57:38.691Z,0
2018-01-03T06:58:39.498Z,0
2018-01-03T06:59:40.227Z,0
2018-01-03T07:00:41.091Z,0
2018-01-03T07:01:41.879Z,4
2018-01-03T07:02:42.604Z,4
2018-01-03T07:03:43.329Z,4
2018-01-03T07:04:44.051Z,4
2018-01-03T07:05:44.763Z,4
2018-01-03T07:06:45.495Z,8
2018-01-03T07:07:46.364Z,12
2018-01-03T07:08:47.171Z,8
2018-01-03T07:09:47.967Z,8
2018-01-03T07:10:48.758Z,12
2018-01-03T07:11:49.485Z,20
2018-01-03T07:12:50.356Z,20
2018-01-03T07:13:51.169Z,16
2018-01-03T07:14:51.890Z,20
2018-01-03T07:15:52.637Z,24
2018-01-03T07:16:53.499Z,40
2018-01-03T07:17:54.293Z,56
2018-01-03T07:18:55.080Z,72
2018-01-03T07:19:55.810Z,76
2018-01-03T07:20:56.542Z,84
2018-01-03T07:21:57.325Z,108
2018-01-03T07:22:58.063Z,136
2018-01-03T07:23:58.844Z,132
2018-01-03T07:24:59.643Z,136
2018-01-03T07:26:00.393Z,144
2018-01-03T07:27:01.208Z,148
2018-01-03T07:28:01.967Z,140
2018-01-03T07:29:02.704Z,156
2018-01-03T07:30:03.431Z,184
2018-01-03T07:31:04.243Z,208
2018-01-03T07:32:05.039Z,212
2018-01-03T07:33:05.769Z,212
2018-01-03T07:34:06.489Z,196
2018-01-03T07:35:07.222Z,216
2018-01-03T07:36:07.953Z,236
2018-01-03T07:37:08.754Z,248
2018-01-03T07:38:09.554Z,280
2018-01-03T07:39:10.291Z,300
2018-01-03T07:40:11.089Z,328
2018-01-03T07:41:11.864Z,340
2018-01-03T07:42:12.619Z,356
2018-01-03T07:43:13.351Z,316
2018-01-03T07:44:14.149Z,240
2018-01-03T07:45:14.930Z,292
2018-01-03T07:46:15.669Z,392
2018-01-03T07:47:16.399Z,484
2018-01-03T07:48:17.125Z,608
2018-01-03T07:49:17.866Z,660
2018-01-03T07:50:18.700Z,648
2018-01-03T07:51:19.430Z,660
2018-01-03T07:52:20.154Z,692
2018-01-03T07:53:20.892Z,724
2018-01-03T07:54:21.609Z,732
2018-01-03T07:55:22.455Z,768
2018-01-03T07:56:23.195Z,788
2018-01-03T07:57:23.917Z,856
2018-01-03T07:58:24.659Z,912
2018-01-03T07:59:25.363Z,896
2018-01-03T08:00:26.141Z,912
2018-01-03T08:01:26.940Z,992
2018-01-03T08:02:27.674Z,1096
2018-01-03T08:03:28.499Z,1160
2018-01-03T08:04:29.237Z,1128
2018-01-03T08:05:30.057Z,1000
2018-01-03T08:06:30.798Z,932
2018-01-03T08:07:31.578Z,804
2018-01-03T08:08:32.310Z,648
2018-01-03T08:09:33.037Z,480
2018-01-03T08:10:33.842Z,384
2018-01-03T08:11:34.563Z,392
2018-01-03T08:12:35.329Z,480
2018-01-03T08:13:36.078Z,404
2018-01-03T08:14:36.849Z,376
2018-01-03T08:15:37.589Z,460
2018-01-03T08:16:38.323Z,548
2018-01-03T08:17:39.108Z,512
2018-01-03T08:18:39.835Z,584
2018-01-03T08:19:40.648Z,916
2018-01-03T08:20:41.381Z,1240
2018-01-03T08:21:42.211Z,1652
2018-01-03T08:22:43.079Z,2260
2018-01-03T08:23:43.808Z,3464
2018-01-03T08:24:44.541Z,4028
2018-01-03T08:25:45.358Z,3708
2018-01-03T08:26:46.081Z,3076
2018-01-03T08:27:46.909Z,1552
2018-01-03T08:28:47.679Z,700
2018-01-03T08:29:48.420Z,456
2018-01-03T08:30:49.163Z,332
2018-01-03T08:31:49.950Z,276
2018-01-03T08:32:50.688Z,344
2018-01-03T08:33:51.409Z,584
2018-01-03T08:34:52.136Z,784
2018-01-03T08:35:52.939Z,1192
2018-01-03T08:36:53.688Z,1532
2018-01-03T08:37:54.447Z,2016
2018-01-03T08:38:55.235Z,2356
2018-01-03T08:39:56.030Z,2572
2018-01-03T08:40:56.769Z,2752
2018-01-03T08:41:57.500Z,2880
2018-01-03T08:42:58.251Z,3028
2018-01-03T08:43:58.979Z,3116
2018-01-03T08:44:59.762Z,3188
2018-01-03T08:46:00.519Z,3264
2018-01-03T08:47:01.270Z,3304
2018-01-03T08:48:02.005Z,3268
2018-01-03T08:49:02.734Z,3344
2018-01-03T08:50:03.501Z,3380
2018-01-03T08:51:04.300Z,3212
2018-01-03T08:52:05.019Z,3168
2018-01-03T08:53:05.762Z,3096
2018-01-03T08:54:06.594Z,2856
2018-01-03T08:55:07.372Z,2816
2018-01-03T08:56:08.116Z,2760
2018-01-03T08:57:08.915Z,2576
2018-01-03T08:58:09.682Z,2472
2018-01-03T08:59:10.413Z,2452
2018-01-03T09:00:11.190Z,2516
2018-01-03T09:01:11.927Z,2824
2018-01-03T09:02:12.651Z,3068
2018-01-03T09:03:13.392Z,3412
2018-01-03T09:04:14.195Z,4148
2018-01-03T09:05:15.021Z,4140
2018-01-03T09:06:15.757Z,3920
2018-01-03T09:07:16.498Z,4028
2018-01-03T09:08:17.269Z,3952
2018-01-03T09:09:17.991Z,3420
2018-01-03T09:10:18.719Z,3008
2018-01-03T09:11:19.440Z,2440
2018-01-03T09:12:20.207Z,2404
2018-01-03T09:13:20.933Z,2048
2018-01-03T09:14:21.671Z,1752
2018-01-03T09:15:22.392Z,1700
2018-01-03T09:16:23.135Z,1944
2018-01-03T09:17:23.911Z,2132
2018-01-03T09:18:24.640Z,1808
2018-01-03T09:19:25.371Z,1500
2018-01-03T09:20:26.111Z,1336
2018-01-03T09:21:26.840Z,1336
2018-01-03T09:22:27.557Z,2096
2018-01-03T09:23:28.305Z,1976
2018-01-03T09:24:29.072Z,2548
2018-01-03T09:25:29.800Z,2264
2018-01-03T09:26:30.534Z,1680
2018-01-03T09:27:31.272Z,1576
2018-01-03T09:28:31.987Z,1372
2018-01-03T09:29:32.729Z,1424
2018-01-03T09:30:33.511Z,1240
2018-01-03T09:31:34.314Z,1424
2018-01-03T09:32:35.091Z,1708
2018-01-03T09:33:35.825Z,2192
2018-01-03T09:34:36.583Z,2720
2018-01-03T09:35:37.399Z,2216
2018-01-03T09:36:38.134Z,2496
2018-01-03T09:37:38.972Z,3940
2018-01-03T09:38:39.656Z,6544
2018-01-03T09:39:40.389Z,8468
2018-01-03T09:40:41.170Z,8244
2018-01-03T09:41:41.967Z,8052
2018-01-03T09:42:42.700Z,7976
2018-01-03T09:43:43.431Z,8600
2018-01-03T09:44:44.163Z,8200
2018-01-03T09:45:44.897Z,7436
2018-01-03T09:46:45.680Z,5388
2018-01-03T09:47:46.399Z,5968
2018-01-03T09:48:47.120Z,4948
2018-01-03T09:49:47.852Z,4228
2018-01-03T09:50:48.590Z,3420
2018-01-03T09:51:49.440Z,4204
2018-01-03T09:52:50.175Z,4232
2018-01-03T09:53:50.978Z,4528
2018-01-03T09:54:51.689Z,4204
2018-01-03T09:55:52.420Z,4492
2018-01-03T09:56:53.217Z,4940
2018-01-03T09:57:54.013Z,5160
2018-01-03T09:58:54.744Z,5056
2018-01-03T09:59:55.535Z,4500
2018-01-03T10:00:56.328Z,4424
2018-01-03T10:01:57.060Z,5128
2018-01-03T10:02:57.800Z,6140
2018-01-03T10:03:58.531Z,6340
2018-01-03T10:04:59.351Z,4880
2018-01-03T10:06:00.098Z,3984
2018-01-03T10:07:00.881Z,3072
2018-01-03T10:08:01.669Z,2952
2018-01-03T10:09:02.385Z,3736
2018-01-03T10:10:03.117Z,3400
2018-01-03T10:11:03.921Z,2940
2018-01-03T10:12:04.659Z,2696
2018-01-03T10:13:05.367Z,2476
2018-01-03T10:14:06.097Z,2076
2018-01-03T10:15:06.830Z,2260
2018-01-03T10:16:07.636Z,3028
2018-01-03T10:17:08.418Z,3288
2018-01-03T10:18:09.150Z,2748
2018-01-03T10:19:09.949Z,3148
2018-01-03T10:20:10.678Z,3044
2018-01-03T10:21:11.410Z,3448
2018-01-03T10:22:12.148Z,3732
2018-01-03T10:23:12.959Z,3368
2018-01-03T10:24:13.692Z,3736
2018-01-03T10:25:14.439Z,4012
2018-01-03T10:26:15.174Z,3904
2018-01-03T10:27:15.969Z,3576
2018-01-03T10:28:16.746Z,4020
2018-01-03T10:29:17.548Z,3896
2018-01-03T10:30:18.281Z,2936
2018-01-03T10:31:19.010Z,3440
2018-01-03T10:32:19.757Z,2628
2018-01-03T10:33:20.491Z,2604
2018-01-03T10:34:21.230Z,3392
2018-01-03T10:35:21.965Z,3472
2018-01-03T10:36:22.748Z,3940
2018-01-03T10:37:23.484Z,4368
2018-01-03T10:38:24.290Z,3880
2018-01-03T10:39:25.022Z,4272
2018-01-03T10:40:25.850Z,4556
2018-01-03T10:41:26.670Z,5764
2018-01-03T10:42:27.404Z,4928
2018-01-03T10:43:28.188Z,5860
2018-01-03T10:44:28.967Z,6712
2018-01-03T10:45:29.786Z,7448
2018-01-03T10:46:30.521Z,9260
2018-01-03T10:47:31.330Z,8760
2018-01-03T10:48:32.056Z,7612
2018-01-03T10:49:32.869Z,8860
2018-01-03T10:50:33.609Z,8480
2018-01-03T10:51:34.410Z,7096
2018-01-03T10:52:35.119Z,9224
2018-01-03T10:53:35.841Z,9016
2018-01-03T10:54:36.641Z,8008
2018-01-03T10:55:37.373Z,8012
2018-01-03T10:56:38.144Z,8392
2018-01-03T10:57:38.870Z,7644
2018-01-03T10:58:39.612Z,7692
2018-01-03T10:59:40.439Z,7312
2018-01-03T11:00:41.219Z,6044
2018-01-03T11:01:42.002Z,5728
2018-01-03T11:02:42.814Z,6048
2018-01-03T11:03:43.601Z,5828
2018-01-03T11:04:44.400Z,4776
2018-01-03T11:05:45.150Z,3912
2018-01-03T11:06:45.931Z,4128
2018-01-03T11:07:46.660Z,4252
2018-01-03T11:08:47.401Z,3628
2018-01-03T11:09:48.201Z,2896
2018-01-03T11:10:48.931Z,3040
2018-01-03T11:11:49.735Z,2760
2018-01-03T11:12:50.510Z,2492
2018-01-03T11:13:51.231Z,3188
2018-01-03T11:14:52.027Z,5492
2018-01-03T11:15:52.760Z,7844
2018-01-03T11:16:53.488Z,7592
2018-01-03T11:17:54.289Z,6844
2018-01-03T11:18:55.090Z,6512
2018-01-03T11:19:55.824Z,6268
2018-01-03T11:20:56.593Z,5264
2018-01-03T11:21:57.390Z,5496
2018-01-03T11:22:58.121Z,5464
2018-01-03T11:23:58.927Z,4824
2018-01-03T11:24:59.779Z,5432
2018-01-03T11:26:00.511Z,4920
2018-01-03T11:27:01.321Z,5188
2018-01-03T11:28:02.165Z,4500
2018-01-03T11:29:02.861Z,3128
2018-01-03T11:30:03.597Z,2792
2018-01-03T11:31:04.415Z,2928
2018-01-03T11:32:05.212Z,2832
2018-01-03T11:33:05.939Z,2824
2018-01-03T11:34:06.665Z,3916
2018-01-03T11:35:07.400Z,4216
2018-01-03T11:36:08.190Z,4396
2018-01-03T11:37:08.920Z,4460
2018-01-03T11:38:09.647Z,4420
2018-01-03T11:39:10.385Z,5380
2018-01-03T11:40:11.120Z,4468
2018-01-03T11:41:11.901Z,3496
2018-01-03T11:42:12.717Z,2732
2018-01-03T11:43:13.440Z,2672
2018-01-03T11:44:14.181Z,2280
2018-01-03T11:45:14.914Z,2624
2018-01-03T11:46:15.700Z,2664
2018-01-03T11:47:16.430Z,2516
2018-01-03T11:48:18.146Z,2288
2018-01-03T11:49:18.813Z,2276
2018-01-03T11:50:19.541Z,2420
2018-01-03T11:51:20.316Z,2620
2018-01-03T11:52:21.098Z,2824
2018-01-03T11:53:22.439Z,3016
2018-01-03T11:54:23.286Z,3096
2018-01-03T11:55:24.062Z,2956
2018-01-03T11:56:24.837Z,2916
2018-01-03T11:57:25.735Z,2452
2018-01-03T11:58:26.542Z,2360
2018-01-03T11:59:27.350Z,1932
2018-01-03T12:00:28.149Z,1508
2018-01-03T12:01:29.036Z,1476
2018-01-03T12:02:29.859Z,1532
2018-01-03T12:03:30.601Z,2076
2018-01-03T12:04:31.370Z,2540
2018-01-03T12:05:32.109Z,2496
2018-01-03T12:06:32.869Z,3068
2018-01-03T12:07:33.573Z,3060
2018-01-03T12:08:34.374Z,2956
2018-01-03T12:09:35.109Z,2852
2018-01-03T12:10:35.835Z,3044
2018-01-03T12:11:36.610Z,3124
2018-01-03T12:12:37.410Z,3176
2018-01-03T12:13:38.249Z,2948
2018-01-03T12:14:38.979Z,3348
2018-01-03T12:15:39.704Z,3128
2018-01-03T12:16:40.425Z,2428
2018-01-03T12:17:41.150Z,2364
2018-01-03T12:18:41.870Z,2240
2018-01-03T12:19:42.610Z,2460
2018-01-03T12:20:43.333Z,2220
2018-01-03T12:21:44.060Z,2980
2018-01-03T12:22:44.788Z,3032
2018-01-03T12:23:45.521Z,2836
2018-01-03T12:24:46.266Z,3248
2018-01-03T12:25:47.062Z,3176
2018-01-03T12:26:47.922Z,2264
2018-01-03T12:27:48.735Z,3340
2018-01-03T12:28:49.455Z,2768
2018-01-03T12:29:50.185Z,2984
2018-01-03T12:30:50.916Z,2836
2018-01-03T12:31:51.887Z,3508
2018-01-03T12:32:52.722Z,2968
2018-01-03T12:33:53.487Z,3276
2018-01-03T12:34:54.301Z,3432
2018-01-03T12:35:55.296Z,3648
2018-01-03T12:36:56.093Z,3252
2018-01-03T12:37:56.890Z,2976
2018-01-03T12:38:57.594Z,3452
2018-01-03T12:39:58.317Z,3864
2018-01-03T12:40:59.075Z,4532
2018-01-03T12:42:01.358Z,4060
2018-01-03T12:43:02.323Z,3820
2018-01-03T12:44:03.706Z,4540
2018-01-03T12:45:04.591Z,4472
2018-01-03T12:46:05.398Z,3580
2018-01-03T12:47:06.174Z,4152
2018-01-03T12:48:06.901Z,3432
2018-01-03T12:49:07.782Z,4084
2018-01-03T12:50:08.499Z,4632
2018-01-03T12:51:09.504Z,4096
2018-01-03T12:52:10.234Z,3960
2018-01-03T12:53:11.020Z,2636
2018-01-03T12:54:11.754Z,3276
2018-01-03T12:55:12.534Z,3020
2018-01-03T12:56:13.210Z,2740
2018-01-03T12:57:14.045Z,2516
2018-01-03T12:58:14.769Z,2296
2018-01-03T12:59:15.532Z,2812
2018-01-03T13:00:16.316Z,3824
2018-01-03T13:01:17.061Z,3548
2018-01-03T13:02:17.779Z,4048
2018-01-03T13:03:18.549Z,4368
2018-01-03T13:04:19.338Z,4048
2018-01-03T13:05:20.075Z,2896
2018-01-03T13:06:20.800Z,2880
2018-01-03T13:07:21.542Z,3088
2018-01-03T13:08:22.325Z,2792
2018-01-03T13:09:23.146Z,3660
2018-01-03T13:10:23.950Z,2628
2018-01-03T13:11:24.681Z,3064
2018-01-03T13:12:25.413Z,2456
2018-01-03T13:13:26.201Z,3240
2018-01-03T13:14:26.932Z,2948
2018-01-03T13:15:27.732Z,2432
2018-01-03T13:16:28.469Z,2056
2018-01-03T13:17:29.245Z,1524
2018-01-03T13:18:30.096Z,1620
2018-01-03T13:19:30.859Z,2128
2018-01-03T13:20:32.695Z,2044
2018-01-03T13:21:33.987Z,2328
2018-01-03T13:22:34.760Z,2300
2018-01-03T13:23:35.489Z,2024
2018-01-03T13:24:36.223Z,1528
2018-01-03T13:25:37.041Z,1216
2018-01-03T13:26:37.760Z,1292
2018-01-03T13:27:38.535Z,1496
2018-01-03T13:28:39.296Z,1688
2018-01-03T13:29:40.065Z,1624
2018-01-03T13:30:40.841Z,1964
2018-01-03T13:31:41.657Z,1856
2018-01-03T13:32:42.420Z,1464
2018-01-03T13:33:43.140Z,1440
2018-01-03T13:34:43.932Z,1228
2018-01-03T13:35:44.654Z,1244
2018-01-03T13:36:45.350Z,1312
2018-01-03T13:37:46.159Z,1188
2018-01-03T13:38:46.888Z,1320
2018-01-03T13:39:47.659Z,1004
2018-01-03T13:40:48.380Z,944
2018-01-03T13:41:49.103Z,1056
2018-01-03T13:42:49.863Z,1040
2018-01-03T13:43:50.605Z,1204
2018-01-03T13:44:51.415Z,1156
2018-01-03T13:45:52.150Z,1332
2018-01-03T13:46:52.877Z,1608
2018-01-03T13:47:53.589Z,1484
2018-01-03T13:48:54.356Z,1200
2018-01-03T13:49:55.230Z,1228
2018-01-03T13:50:55.965Z,1360
2018-01-03T13:51:56.672Z,1360
2018-01-03T13:52:57.490Z,1376
2018-01-03T13:53:58.276Z,1372
2018-01-03T13:54:59.091Z,1284
2018-01-03T13:55:59.900Z,1308
2018-01-03T13:57:00.613Z,1260
2018-01-03T13:58:01.331Z,1380
2018-01-03T13:59:02.109Z,1296
2018-01-03T14:00:02.880Z,992
2018-01-03T14:01:03.601Z,872
2018-01-03T14:02:04.392Z,844
2018-01-03T14:03:05.189Z,704
2018-01-03T14:04:05.971Z,928
2018-01-03T14:05:06.834Z,836
2018-01-03T14:06:07.539Z,1180
2018-01-03T14:07:08.271Z,1268
2018-01-03T14:08:09.001Z,1356
2018-01-03T14:09:09.807Z,916
2018-01-03T14:10:10.590Z,796
2018-01-03T14:11:11.379Z,764
2018-01-03T14:12:12.103Z,1212
2018-01-03T14:13:12.922Z,1444
2018-01-03T14:14:13.621Z,1520
2018-01-03T14:15:14.477Z,1276
2018-01-03T14:16:15.199Z,1316
2018-01-03T14:17:15.930Z,1308
2018-01-03T14:18:16.652Z,1224
2018-01-03T14:19:17.367Z,980
2018-01-03T14:20:18.186Z,836
2018-01-03T14:21:18.906Z,856
2018-01-03T14:22:19.647Z,924
2018-01-03T14:23:20.409Z,1024
2018-01-03T14:24:21.130Z,996
2018-01-03T14:25:21.979Z,988
2018-01-03T14:26:22.713Z,912
2018-01-03T14:27:23.496Z,892
2018-01-03T14:28:24.286Z,956
2018-01-03T14:29:25.081Z,964
2018-01-03T14:30:25.922Z,932
2018-01-03T14:31:26.600Z,788
2018-01-03T14:32:27.323Z,784
2018-01-03T14:33:28.100Z,760
2018-01-03T14:34:28.873Z,856
2018-01-03T14:35:29.660Z,764
2018-01-03T14:36:30.392Z,764
2018-01-03T14:37:31.165Z,816
2018-01-03T14:38:31.905Z,864
2018-01-03T14:39:32.634Z,1028
2018-01-03T14:40:33.371Z,1076
2018-01-03T14:41:34.143Z,1260
2018-01-03T14:42:35.133Z,1176
2018-01-03T14:43:35.801Z,1108
2018-01-03T14:44:36.580Z,824
2018-01-03T14:45:37.299Z,712
2018-01-03T14:46:38.020Z,492
2018-01-03T14:47:38.739Z,456
2018-01-03T14:48:39.510Z,416
2018-01-03T14:49:40.275Z,464
2018-01-03T14:50:41.010Z,524
2018-01-03T14:51:41.730Z,516
2018-01-03T14:52:42.449Z,404
2018-01-03T14:53:43.239Z,364
2018-01-03T14:54:43.969Z,380
2018-01-03T14:55:44.687Z,360
2018-01-03T14:56:45.422Z,416
2018-01-03T14:57:46.229Z,416
2018-01-03T14:58:47.011Z,400
2018-01-03T14:59:47.741Z,420
2018-01-03T15:00:48.614Z,420
2018-01-03T15:01:49.350Z,388
2018-01-03T15:02:50.072Z,400
2018-01-03T15:03:50.849Z,300
2018-01-03T15:04:51.579Z,304
2018-01-03T15:05:52.310Z,264
2018-01-03T15:06:53.031Z,212
2018-01-03T15:07:53.751Z,148
2018-01-03T15:08:54.551Z,168
2018-01-03T15:09:55.376Z,160
2018-01-03T15:10:56.097Z,144
2018-01-03T15:11:56.829Z,112
2018-01-03T15:12:57.560Z,100
2018-01-03T15:13:58.366Z,96
2018-01-03T15:14:59.141Z,84
2018-01-03T15:15:59.934Z,72
2018-01-03T15:17:00.665Z,84
2018-01-03T15:18:01.389Z,72
2018-01-03T15:19:02.134Z,68
2018-01-03T15:20:02.842Z,56
2018-01-03T15:21:03.563Z,48
2018-01-03T15:22:04.291Z,36
2018-01-03T15:23:05.222Z,32
2018-01-03T15:24:05.879Z,32
2018-01-03T15:25:06.612Z,24
2018-01-03T15:26:07.332Z,24
2018-01-03T15:27:08.050Z,24
2018-01-03T15:28:08.829Z,20
2018-01-03T15:29:09.559Z,20
2018-01-03T15:30:10.281Z,20
2018-01-03T15:31:11.135Z,20
2018-01-03T15:32:11.937Z,16
2018-01-03T15:33:12.719Z,12
2018-01-03T15:34:13.509Z,16
2018-01-03T15:35:14.236Z,12
2018-01-03T15:36:15.013Z,16
2018-01-03T15:37:15.799Z,12
2018-01-03T15:38:16.633Z,12
2018-01-03T15:39:17.419Z,12
2018-01-03T15:40:18.139Z,8
2018-01-03T15:41:18.865Z,8
2018-01-03T15:42:19.658Z,4
2018-01-03T15:43:20.426Z,4
2018-01-03T15:44:21.191Z,4
2018-01-03T15:45:21.999Z,4
2018-01-03T15:46:22.769Z,4
2018-01-03T15:47:23.500Z,4